sensor_id;sensor_type;location;lat;lon;timestamp;pressure;altitude;pressure_sealevel;temperature;humidity
76478;BME280;65309;49.790;18.972;2023-04-01T00:00:42;95159.16;;;8.35;72.10
76478;BME280;65309;49.790;18.972;2023-04-01T00:05:50;95161.91;;;8.18;73.13
76478;BME280;65309;49.790;18.972;2023-04-01T00:10:54;95160.41;;;8.23;73.44
76478;BME280;65309;49.790;18.972;2023-04-01T00:15:56;95162.44;;;8.11;74.14
76478;BME280;65309;49.790;18.972;2023-04-01T00:21:00;95155.91;;;8.42;72.02
76478;BME280;65309;49.790;18.972;2023-04-01T00:26:04;95144.91;;;8.42;73.11
76478;BME280;65309;49.790;18.972;2023-04-01T00:31:07;95143.66;;;8.38;72.93
76478;BME280;65309;49.790;18.972;2023-04-01T00:36:12;95148.63;;;8.50;71.98
76478;BME280;65309;49.790;18.972;2023-04-01T00:41:16;95153.41;;;8.44;72.14
76478;BME280;65309;49.790;18.972;2023-04-01T00:46:19;95153.13;;;8.53;72.73
76478;BME280;65309;49.790;18.972;2023-04-01T00:51:25;95152.41;;;8.47;72.35
76478;BME280;65309;49.790;18.972;2023-04-01T00:56:33;95161.41;;;8.48;72.68
76478;BME280;65309;49.790;18.972;2023-04-01T01:01:37;95164.94;;;8.43;73.20
76478;BME280;65309;49.790;18.972;2023-04-01T01:06:46;95155.91;;;8.42;73.07
76478;BME280;65309;49.790;18.972;2023-04-01T01:11:59;95155.44;;;8.38;73.49
76478;BME280;65309;49.790;18.972;2023-04-01T01:17:11;95152.66;;;8.38;74.31
76478;BME280;65309;49.790;18.972;2023-04-01T01:22:29;95159.44;;;8.43;73.65
76478;BME280;65309;49.790;18.972;2023-04-01T01:27:37;95154.66;;;8.43;73.88
76478;BME280;65309;49.790;18.972;2023-04-01T01:32:55;95140.63;;;8.41;73.63
76478;BME280;65309;49.790;18.972;2023-04-01T01:38:04;95145.88;;;8.39;74.63
76478;BME280;65309;49.790;18.972;2023-04-01T01:43:10;95138.16;;;8.32;74.60
76478;BME280;65309;49.790;18.972;2023-04-01T01:48:14;95143.91;;;8.34;74.52
76478;BME280;65309;49.790;18.972;2023-04-01T01:53:19;95138.88;;;8.27;74.96
76478;BME280;65309;49.790;18.972;2023-04-01T01:58:24;95157.16;;;8.24;74.87
76478;BME280;65309;49.790;18.972;2023-04-01T02:03:30;95152.16;;;8.28;75.06
76478;BME280;65309;49.790;18.972;2023-04-01T02:08:36;95138.41;;;8.34;75.10
76478;BME280;65309;49.790;18.972;2023-04-01T02:13:45;95154.94;;;8.34;74.09
76478;BME280;65309;49.790;18.972;2023-04-01T02:18:52;95162.41;;;8.39;74.11
76478;BME280;65309;49.790;18.972;2023-04-01T02:23:58;95159.91;;;8.41;73.43
76478;BME280;65309;49.790;18.972;2023-04-01T02:29:03;95170.44;;;8.43;74.08
76478;BME280;65309;49.790;18.972;2023-04-01T02:34:07;95160.19;;;8.43;74.05
76478;BME280;65309;49.790;18.972;2023-04-01T02:39:10;95164.91;;;8.48;73.86
76478;BME280;65309;49.790;18.972;2023-04-01T02:44:14;95162.66;;;8.47;73.76
76478;BME280;65309;49.790;18.972;2023-04-01T02:49:16;95170.91;;;8.52;73.68
76478;BME280;65309;49.790;18.972;2023-04-01T02:54:20;95162.66;;;8.47;73.31
76478;BME280;65309;49.790;18.972;2023-04-01T02:59:22;95164.91;;;8.54;73.24
76478;BME280;65309;49.790;18.972;2023-04-01T03:04:24;95172.19;;;8.51;73.44
76478;BME280;65309;49.790;18.972;2023-04-01T03:09:27;95181.16;;;8.52;75.17
76478;BME280;65309;49.790;18.972;2023-04-01T03:14:30;95181.72;;;8.17;77.93
76478;BME280;65309;49.790;18.972;2023-04-01T03:19:32;95192.50;;;8.09;79.40
76478;BME280;65309;49.790;18.972;2023-04-01T03:24:35;95185.47;;;7.80;81.20
76478;BME280;65309;49.790;18.972;2023-04-01T03:29:37;95179.72;;;7.67;81.85
76478;BME280;65309;49.790;18.972;2023-04-01T03:34:39;95180.69;;;7.81;80.53
76478;BME280;65309;49.790;18.972;2023-04-01T03:39:42;95188.47;;;7.82;79.97
76478;BME280;65309;49.790;18.972;2023-04-01T03:44:45;95192.50;;;7.93;78.74
76478;BME280;65309;49.790;18.972;2023-04-01T03:49:47;95175.22;;;7.86;80.16
76478;BME280;65309;49.790;18.972;2023-04-01T03:54:51;95174.19;;;7.90;79.67
76478;BME280;65309;49.790;18.972;2023-04-01T03:59:53;95177.97;;;7.92;78.67
76478;BME280;65309;49.790;18.972;2023-04-01T04:04:55;95184.97;;;7.88;79.40
76478;BME280;65309;49.790;18.972;2023-04-01T04:09:58;95185.47;;;7.80;80.65
76478;BME280;65309;49.790;18.972;2023-04-01T04:15:00;95181.47;;;7.93;78.17
76478;BME280;65309;49.790;18.972;2023-04-01T04:20:03;95179.47;;;7.82;78.49
76478;BME280;65309;49.790;18.972;2023-04-01T04:25:08;95182.72;;;7.80;78.67
76478;BME280;65309;49.790;18.972;2023-04-01T04:30:10;95179.47;;;7.88;77.53
76478;BME280;65309;49.790;18.972;2023-04-01T04:35:13;95185.47;;;8.03;76.92
76478;BME280;65309;49.790;18.972;2023-04-01T04:40:16;95182.22;;;8.04;77.08
76478;BME280;65309;49.790;18.972;2023-04-01T04:45:18;95180.72;;;8.03;76.36
76478;BME280;65309;49.790;18.972;2023-04-01T04:50:20;95183.97;;;8.02;76.86
76478;BME280;65309;49.790;18.972;2023-04-01T04:55:23;95183.72;;;8.16;76.04
76478;BME280;65309;49.790;18.972;2023-04-01T05:00:25;95178.94;;;8.22;76.71
76478;BME280;65309;49.790;18.972;2023-04-01T05:05:27;95176.72;;;8.32;75.63
76478;BME280;65309;49.790;18.972;2023-04-01T05:10:31;95173.94;;;8.38;76.37
76478;BME280;65309;49.790;18.972;2023-04-01T05:15:33;95167.91;;;8.39;75.92
76478;BME280;65309;49.790;18.972;2023-04-01T05:20:36;95176.97;;;8.34;74.99
76478;BME280;65309;49.790;18.972;2023-04-01T05:25:39;95180.97;;;8.22;75.92
76478;BME280;65309;49.790;18.972;2023-04-01T05:30:42;95179.19;;;8.36;75.91
76478;BME280;65309;49.790;18.972;2023-04-01T05:35:44;95186.72;;;8.41;75.00
76478;BME280;65309;49.790;18.972;2023-04-01T05:40:48;95192.72;;;8.50;75.03
76478;BME280;65309;49.790;18.972;2023-04-01T05:45:49;95198.72;;;8.60;74.61
76478;BME280;65309;49.790;18.972;2023-04-01T05:50:52;95209.47;;;8.52;75.13
76478;BME280;65309;49.790;18.972;2023-04-01T05:55:55;95197.69;;;8.63;74.66
76478;BME280;65309;49.790;18.972;2023-04-01T06:01:01;95201.94;;;8.69;74.61
76478;BME280;65309;49.790;18.972;2023-04-01T06:06:14;95206.94;;;8.76;73.23
76478;BME280;65309;49.790;18.972;2023-04-01T06:11:25;95202.41;;;8.79;73.87
76478;BME280;65309;49.790;18.972;2023-04-01T06:16:39;95207.44;;;8.69;74.20
76478;BME280;65309;49.790;18.972;2023-04-01T06:27:42;95212.19;;;8.80;73.97
76478;BME280;65309;49.790;18.972;2023-04-01T06:33:06;95213.44;;;8.85;73.66
76478;BME280;65309;49.790;18.972;2023-04-01T06:38:20;95211.63;;;8.98;73.32
76478;BME280;65309;49.790;18.972;2023-04-01T06:43:36;95216.63;;;9.57;72.53
76478;BME280;65309;49.790;18.972;2023-04-01T06:48:54;95209.28;;;9.19;72.89
76478;BME280;65309;49.790;18.972;2023-04-01T06:54:03;95211.06;;;9.16;72.38
76478;BME280;65309;49.790;18.972;2023-04-01T06:59:12;95216.97;;;9.43;72.54
76478;BME280;65309;49.790;18.972;2023-04-01T07:04:18;95213.81;;;9.22;72.12
76478;BME280;65309;49.790;18.972;2023-04-01T07:09:25;95214.69;;;9.41;74.36
76478;BME280;65309;49.790;18.972;2023-04-01T07:14:32;95207.53;;;9.21;72.22
76478;BME280;65309;49.790;18.972;2023-04-01T07:19:42;95226.59;;;9.19;73.77
76478;BME280;65309;49.790;18.972;2023-04-01T07:24:46;95230.38;;;9.11;73.18
76478;BME280;65309;49.790;18.972;2023-04-01T07:29:49;95226.38;;;9.12;73.49
76478;BME280;65309;49.790;18.972;2023-04-01T07:35:13;95226.31;;;9.23;73.19
76478;BME280;65309;49.790;18.972;2023-04-01T07:40:24;95217.88;;;9.10;72.72
76478;BME280;65309;49.790;18.972;2023-04-01T07:45:34;95228.91;;;9.10;73.13
76478;BME280;65309;49.790;18.972;2023-04-01T07:50:41;95231.66;;;9.56;72.90
76478;BME280;65309;49.790;18.972;2023-04-01T07:55:55;95235.03;;;9.85;71.59
76478;BME280;65309;49.790;18.972;2023-04-01T08:01:09;95241.03;;;9.89;69.67
76478;BME280;65309;49.790;18.972;2023-04-01T08:06:17;95244.38;;;9.76;71.58
76478;BME280;65309;49.790;18.972;2023-04-01T08:11:31;95249.81;;;9.41;74.21
76478;BME280;65309;49.790;18.972;2023-04-01T08:16:41;95250.81;;;9.43;72.81
76478;BME280;65309;49.790;18.972;2023-04-01T08:21:49;95257.44;;;9.18;74.83
76478;BME280;65309;49.790;18.972;2023-04-01T08:26:54;95255.53;;;8.74;75.90
76478;BME280;65309;49.790;18.972;2023-04-01T08:32:03;95249.22;;;8.96;75.73
76478;BME280;65309;49.790;18.972;2023-04-01T08:37:08;95249.59;;;9.39;74.22
76478;BME280;65309;49.790;18.972;2023-04-01T08:42:31;95255.94;;;9.17;74.96
76478;BME280;65309;49.790;18.972;2023-04-01T08:48:12;95253.41;;;9.19;74.72
76478;BME280;65309;49.790;18.972;2023-04-01T08:53:26;95243.84;;;9.31;75.44
76478;BME280;65309;49.790;18.972;2023-04-01T08:58:54;95257.47;;;9.07;75.84
76478;BME280;65309;49.790;18.972;2023-04-01T09:04:25;95272.56;;;8.84;79.02
76478;BME280;65309;49.790;18.972;2023-04-01T09:10:02;95277.81;;;8.87;79.35
76478;BME280;65309;49.790;18.972;2023-04-01T09:15:25;95271.56;;;8.87;78.75
76478;BME280;65309;49.790;18.972;2023-04-01T09:20:44;95277.53;;;9.07;78.50
76478;BME280;65309;49.790;18.972;2023-04-01T09:25:59;95268.56;;;9.53;78.21
76478;BME280;65309;49.790;18.972;2023-04-01T09:31:27;95275.22;;;10.27;75.17
76478;BME280;65309;49.790;18.972;2023-04-01T09:37:47;70918.97;;;-145.47;100.00
76478;BME280;65309;49.790;18.972;2023-04-01T09:48:46;95278.00;;;10.21;76.26
76478;BME280;65309;49.790;18.972;2023-04-01T09:54:04;95276.28;;;10.18;72.90
76478;BME280;65309;49.790;18.972;2023-04-01T09:59:35;95282.84;;;10.04;74.41
76478;BME280;65309;49.790;18.972;2023-04-01T10:05:12;95291.25;;;10.28;75.27
76478;BME280;65309;49.790;18.972;2023-04-01T10:10:39;95286.13;;;10.43;74.30
76478;BME280;65309;49.790;18.972;2023-04-01T10:16:22;95290.38;;;9.62;78.54
76478;BME280;65309;49.790;18.972;2023-04-01T10:21:42;95302.00;;;9.39;79.43
76478;BME280;65309;49.790;18.972;2023-04-01T10:27:12;95301.97;;;9.44;80.78
76478;BME280;65309;49.790;18.972;2023-04-01T10:32:35;95302.19;;;9.52;79.42
76478;BME280;65309;49.790;18.972;2023-04-01T10:38:10;95298.78;;;9.29;81.42
76478;BME280;65309;49.790;18.972;2023-04-01T10:43:40;95297.16;;;10.02;78.23
76478;BME280;65309;49.790;18.972;2023-04-01T10:49:24;95304.69;;;10.02;78.59
76478;BME280;65309;49.790;18.972;2023-04-01T10:54:43;95303.66;;;10.16;77.33
76478;BME280;65309;49.790;18.972;2023-04-01T11:06:06;95314.84;;;10.65;75.61
76478;BME280;65309;49.790;18.972;2023-04-01T11:28:25;95298.72;;;11.66;74.48
76478;BME280;65309;49.790;18.972;2023-04-01T11:33:34;95303.03;;;10.94;72.87
76478;BME280;65309;49.790;18.972;2023-04-01T11:38:53;95300.97;;;10.70;74.17
76478;BME280;65309;49.790;18.972;2023-04-01T11:44:12;95305.00;;;11.47;74.66
76478;BME280;65309;49.790;18.972;2023-04-01T11:49:29;95288.41;;;11.47;74.09
76478;BME280;65309;49.790;18.972;2023-04-01T11:55:00;95300.66;;;11.52;73.34
76478;BME280;65309;49.790;18.972;2023-04-01T12:00:34;95300.94;;;11.48;71.91
76478;BME280;65309;49.790;18.972;2023-04-01T12:05:43;95299.47;;;11.66;70.86
76478;BME280;65309;49.790;18.972;2023-04-01T12:10:55;95290.69;;;11.86;70.62
76478;BME280;65309;49.790;18.972;2023-04-01T12:16:13;95290.09;;;11.75;68.82
76478;BME280;65309;49.790;18.972;2023-04-01T12:21:25;95287.81;;;11.73;68.07
76478;BME280;65309;49.790;18.972;2023-04-01T12:26:47;95296.69;;;12.09;68.66
76478;BME280;65309;49.790;18.972;2023-04-01T12:31:59;95294.25;;;11.63;66.25
76478;BME280;65309;49.790;18.972;2023-04-01T12:37:08;95305.28;;;10.95;71.69
76478;BME280;65309;49.790;18.972;2023-04-01T12:42:29;95310.06;;;10.35;73.82
76478;BME280;65309;49.790;18.972;2023-04-01T12:47:54;95305.41;;;10.54;73.51
76478;BME280;65309;49.790;18.972;2023-04-01T12:53:11;95305.19;;;10.47;74.60
76478;BME280;65309;49.790;18.972;2023-04-01T12:58:53;95307.72;;;10.45;72.68
76478;BME280;65309;49.790;18.972;2023-04-01T13:09:37;95320.56;;;10.42;75.04
76478;BME280;65309;49.790;18.972;2023-04-01T13:15:10;95322.00;;;10.84;73.33
76478;BME280;65309;49.790;18.972;2023-04-01T13:20:25;95323.44;;;10.61;73.33
76478;BME280;65309;49.790;18.972;2023-04-01T13:25:36;95326.16;;;10.67;75.79
76478;BME280;65309;49.790;18.972;2023-04-01T13:30:46;95328.78;;;10.83;74.30
76478;BME280;65309;49.790;18.972;2023-04-01T13:36:01;95332.22;;;10.24;76.60
76478;BME280;65309;49.790;18.972;2023-04-01T13:41:13;95331.31;;;10.05;75.65
76478;BME280;65309;49.790;18.972;2023-04-01T13:46:52;95325.91;;;10.35;76.22
76478;BME280;65309;49.790;18.972;2023-04-01T13:52:12;95333.59;;;10.47;76.46
76478;BME280;65309;49.790;18.972;2023-04-01T13:57:35;95333.75;;;10.20;76.50
76478;BME280;65309;49.790;18.972;2023-04-01T14:08:36;95338.47;;;9.84;80.87
76478;BME280;65309;49.790;18.972;2023-04-01T14:13:41;95351.31;;;9.70;81.80
76478;BME280;65309;49.790;18.972;2023-04-01T14:18:53;95353.09;;;9.67;83.79
76478;BME280;65309;49.790;18.972;2023-04-01T14:29:29;95336.97;;;9.77;84.07
76478;BME280;65309;49.790;18.972;2023-04-01T14:34:53;95345.72;;;9.81;84.15
76478;BME280;65309;49.790;18.972;2023-04-01T14:40:20;95355.78;;;9.84;82.87
76478;BME280;65309;49.790;18.972;2023-04-01T14:45:36;95363.41;;;10.19;83.04
76478;BME280;65309;49.790;18.972;2023-04-01T14:50:46;95367.97;;;9.42;86.18
76478;BME280;65309;49.790;18.972;2023-04-01T14:55:51;95370.28;;;9.16;86.95
76478;BME280;65309;49.790;18.972;2023-04-01T15:01:06;95344.94;;;9.92;80.11
76478;BME280;65309;49.790;18.972;2023-04-01T15:06:35;95335.34;;;10.45;79.40
76478;BME280;65309;49.790;18.972;2023-04-01T15:11:52;95336.38;;;10.77;78.66
76478;BME280;65309;49.790;18.972;2023-04-01T15:17:05;95332.66;;;10.99;77.80
76478;BME280;65309;49.790;18.972;2023-04-01T15:22:29;95329.44;;;11.19;75.07
76478;BME280;65309;49.790;18.972;2023-04-01T15:27:43;95337.81;;;11.38;75.11
76478;BME280;65309;49.790;18.972;2023-04-01T15:33:02;95339.00;;;11.67;72.89
76478;BME280;65309;49.790;18.972;2023-04-01T15:38:17;95338.19;;;12.15;69.10
76478;BME280;65309;49.790;18.972;2023-04-01T15:43:33;95346.56;;;12.09;68.82
76478;BME280;65309;49.790;18.972;2023-04-01T15:48:54;95349.03;;;11.70;69.57
76478;BME280;65309;49.790;18.972;2023-04-01T15:54:16;95360.63;;;11.44;71.04
76478;BME280;65309;49.790;18.972;2023-04-01T15:59:43;95360.59;;;11.49;69.08
76478;BME280;65309;49.790;18.972;2023-04-01T16:04:55;95374.13;;;11.29;69.69
76478;BME280;65309;49.790;18.972;2023-04-01T16:10:09;95369.25;;;11.11;70.31
76478;BME280;65309;49.790;18.972;2023-04-01T16:15:25;95376.09;;;11.10;68.91
76478;BME280;65309;49.790;18.972;2023-04-01T16:20:43;95380.66;;;10.72;69.40
76478;BME280;65309;49.790;18.972;2023-04-01T16:25:51;95382.31;;;10.50;70.58
76478;BME280;65309;49.790;18.972;2023-04-01T16:30:58;95387.97;;;10.28;71.64
76478;BME280;65309;49.790;18.972;2023-04-01T16:36:09;95407.22;;;10.45;70.25
76478;BME280;65309;49.790;18.972;2023-04-01T16:41:34;95407.22;;;10.45;70.25
76478;BME280;65309;49.790;18.972;2023-04-01T16:46:40;95425.63;;;10.31;73.68
76478;BME280;65309;49.790;18.972;2023-04-01T16:51:47;95430.75;;;10.05;72.57
76478;BME280;65309;49.790;18.972;2023-04-01T16:57:51;70918.97;;;-145.47;100.00
76478;BME280;65309;49.790;18.972;2023-04-01T17:04:00;70918.97;;;-145.47;100.00
76478;BME280;65309;49.790;18.972;2023-04-01T17:10:22;70918.97;;;-145.47;100.00
76478;BME280;65309;49.790;18.972;2023-04-01T17:16:38;70918.97;;;-145.47;100.00
76478;BME280;65309;49.790;18.972;2023-04-01T17:22:53;70918.97;;;-145.47;100.00
76478;BME280;65309;49.790;18.972;2023-04-01T17:28:58;70918.97;;;-145.47;100.00
76478;BME280;65309;49.790;18.972;2023-04-01T17:35:11;70918.97;;;-145.47;100.00
76478;BME280;65309;49.790;18.972;2023-04-01T17:41:40;70918.97;;;-145.47;100.00
76478;BME280;65309;49.790;18.972;2023-04-01T17:47:49;70918.97;;;-145.47;100.00
76478;BME280;65309;49.790;18.972;2023-04-01T17:54:04;70918.97;;;-145.47;100.00
76478;BME280;65309;49.790;18.972;2023-04-01T18:00:23;70918.97;;;-145.47;100.00
76478;BME280;65309;49.790;18.972;2023-04-01T18:06:33;70918.97;;;-145.47;100.00
76478;BME280;65309;49.790;18.972;2023-04-01T18:12:45;70918.97;;;-145.47;100.00
76478;BME280;65309;49.790;18.972;2023-04-01T18:19:02;70918.97;;;-145.47;100.00
76478;BME280;65309;49.790;18.972;2023-04-01T18:25:15;70918.97;;;-145.47;100.00
76478;BME280;65309;49.790;18.972;2023-04-01T18:31:20;70918.97;;;-145.47;100.00
76478;BME280;65309;49.790;18.972;2023-04-01T18:37:32;70918.97;;;-145.47;100.00
76478;BME280;65309;49.790;18.972;2023-04-01T18:43:40;70918.97;;;-145.47;100.00
76478;BME280;65309;49.790;18.972;2023-04-01T18:49:52;70918.97;;;-145.47;100.00
76478;BME280;65309;49.790;18.972;2023-04-01T18:56:12;70918.97;;;-145.47;100.00
76478;BME280;65309;49.790;18.972;2023-04-01T19:02:25;70918.97;;;-145.47;100.00
76478;BME280;65309;49.790;18.972;2023-04-01T19:08:40;70918.97;;;-145.47;100.00
76478;BME280;65309;49.790;18.972;2023-04-01T19:14:53;70918.97;;;-145.47;100.00
76478;BME280;65309;49.790;18.972;2023-04-01T19:20:59;70918.97;;;-145.47;100.00
76478;BME280;65309;49.790;18.972;2023-04-01T19:27:06;70918.97;;;-145.47;100.00
76478;BME280;65309;49.790;18.972;2023-04-01T19:33:23;70918.97;;;-145.47;100.00
76478;BME280;65309;49.790;18.972;2023-04-01T19:39:35;70918.97;;;-145.47;100.00
76478;BME280;65309;49.790;18.972;2023-04-01T19:45:43;70918.97;;;-145.47;100.00
76478;BME280;65309;49.790;18.972;2023-04-01T19:51:52;70918.97;;;-145.47;100.00
76478;BME280;65309;49.790;18.972;2023-04-01T19:58:05;70918.97;;;-145.47;100.00
76478;BME280;65309;49.790;18.972;2023-04-01T20:04:17;70918.97;;;-145.47;100.00
76478;BME280;65309;49.790;18.972;2023-04-01T20:10:32;70918.97;;;-145.47;100.00
76478;BME280;65309;49.790;18.972;2023-04-01T20:16:43;70918.97;;;-145.47;100.00
76478;BME280;65309;49.790;18.972;2023-04-01T20:29:22;70918.97;;;-145.47;100.00
76478;BME280;65309;49.790;18.972;2023-04-01T20:35:41;70918.97;;;-145.47;100.00
76478;BME280;65309;49.790;18.972;2023-04-01T20:41:49;70918.97;;;-145.47;100.00
76478;BME280;65309;49.790;18.972;2023-04-01T20:48:11;70918.97;;;-145.47;100.00
76478;BME280;65309;49.790;18.972;2023-04-01T20:54:23;70918.97;;;-145.47;100.00
76478;BME280;65309;49.790;18.972;2023-04-01T21:00:36;70918.97;;;-145.47;100.00
76478;BME280;65309;49.790;18.972;2023-04-01T21:07:16;70918.97;;;-145.47;100.00
76478;BME280;65309;49.790;18.972;2023-04-01T21:13:29;70918.97;;;-145.47;100.00
76478;BME280;65309;49.790;18.972;2023-04-01T21:19:51;70918.97;;;-145.47;100.00
76478;BME280;65309;49.790;18.972;2023-04-01T21:26:18;70918.97;;;-145.47;100.00
76478;BME280;65309;49.790;18.972;2023-04-01T21:32:28;70918.97;;;-145.47;100.00
76478;BME280;65309;49.790;18.972;2023-04-01T21:38:48;70918.97;;;-145.47;100.00
76478;BME280;65309;49.790;18.972;2023-04-01T21:45:26;70918.97;;;-145.47;100.00
76478;BME280;65309;49.790;18.972;2023-04-01T21:52:00;70918.97;;;-145.47;100.00
76478;BME280;65309;49.790;18.972;2023-04-01T21:58:46;70918.97;;;-145.47;100.00
76478;BME280;65309;49.790;18.972;2023-04-01T22:05:08;70918.97;;;-145.47;100.00
76478;BME280;65309;49.790;18.972;2023-04-01T22:11:17;70918.97;;;-145.47;100.00
76478;BME280;65309;49.790;18.972;2023-04-01T22:17:25;70918.97;;;-145.47;100.00
76478;BME280;65309;49.790;18.972;2023-04-01T22:23:37;70918.97;;;-145.47;100.00
76478;BME280;65309;49.790;18.972;2023-04-01T22:29:52;70918.97;;;-145.47;100.00
76478;BME280;65309;49.790;18.972;2023-04-01T22:36:00;70918.97;;;-145.47;100.00
76478;BME280;65309;49.790;18.972;2023-04-01T22:42:16;70918.97;;;-145.47;100.00
76478;BME280;65309;49.790;18.972;2023-04-01T22:48:29;70918.97;;;-145.47;100.00
76478;BME280;65309;49.790;18.972;2023-04-01T22:54:40;70918.97;;;-145.47;100.00
76478;BME280;65309;49.790;18.972;2023-04-01T23:00:47;70918.97;;;-145.47;100.00
76478;BME280;65309;49.790;18.972;2023-04-01T23:06:51;70918.97;;;-145.47;100.00
76478;BME280;65309;49.790;18.972;2023-04-01T23:12:54;70918.97;;;-145.47;100.00
76478;BME280;65309;49.790;18.972;2023-04-01T23:19:09;70918.97;;;-145.47;100.00
76478;BME280;65309;49.790;18.972;2023-04-01T23:25:17;70918.97;;;-145.47;100.00
76478;BME280;65309;49.790;18.972;2023-04-01T23:31:37;70918.97;;;-145.47;100.00
76478;BME280;65309;49.790;18.972;2023-04-01T23:37:41;70918.97;;;-145.47;100.00
76478;BME280;65309;49.790;18.972;2023-04-01T23:43:42;70918.97;;;-145.47;100.00
76478;BME280;65309;49.790;18.972;2023-04-01T23:49:45;70918.97;;;-145.47;100.00
76478;BME280;65309;49.790;18.972;2023-04-01T23:55:51;70918.97;;;-145.47;100.00
